sensor_id;sensor_type;location;lat;lon;timestamp;pressure;altitude;pressure_sealevel;temperature;humidity
35507;BME280;36461;52.018;21.036;2022-11-20T00:01:16;100243.98;;;-5.97;72.67
35507;BME280;36461;52.018;21.036;2022-11-20T00:03:48;100245.34;;;-5.94;72.87
35507;BME280;36461;52.018;21.036;2022-11-20T00:06:17;100247.95;;;-5.92;72.85
35507;BME280;36461;52.018;21.036;2022-11-20T00:08:45;100247.58;;;-5.90;72.97
35507;BME280;36461;52.018;21.036;2022-11-20T00:11:13;100250.14;;;-5.88;73.00
35507;BME280;36461;52.018;21.036;2022-11-20T00:13:45;100246.36;;;-5.88;73.02
35507;BME280;36461;52.018;21.036;2022-11-20T00:16:13;100245.09;;;-5.88;73.02
35507;BME280;36461;52.018;21.036;2022-11-20T00:18:41;100246.81;;;-5.87;73.02
35507;BME280;36461;52.018;21.036;2022-11-20T00:21:13;100242.61;;;-5.87;72.97
35507;BME280;36461;52.018;21.036;2022-11-20T00:23:45;100242.52;;;-5.90;72.91
35507;BME280;36461;52.018;21.036;2022-11-20T00:26:14;100241.17;;;-5.93;72.85
35507;BME280;36461;52.018;21.036;2022-11-20T00:28:43;100240.66;;;-5.96;72.89
35507;BME280;36461;52.018;21.036;2022-11-20T00:31:14;100241.79;;;-6.00;72.89
35507;BME280;36461;52.018;21.036;2022-11-20T00:33:42;100239.17;;;-6.03;72.92
35507;BME280;36461;52.018;21.036;2022-11-20T00:36:17;100240.81;;;-6.05;72.97
35507;BME280;36461;52.018;21.036;2022-11-20T00:38:44;100237.82;;;-6.07;73.12
35507;BME280;36461;52.018;21.036;2022-11-20T00:41:13;100238.20;;;-6.07;73.08
35507;BME280;36461;52.018;21.036;2022-11-20T00:43:41;100236.76;;;-6.13;73.09
35507;BME280;36461;52.018;21.036;2022-11-20T00:46:15;100237.09;;;-6.15;73.18
35507;BME280;36461;52.018;21.036;2022-11-20T00:48:43;100237.90;;;-6.16;73.23
35507;BME280;36461;52.018;21.036;2022-11-20T00:51:12;100232.80;;;-6.18;73.28
35507;BME280;36461;52.018;21.036;2022-11-20T00:53:41;100232.80;;;-6.18;73.26
35507;BME280;36461;52.018;21.036;2022-11-20T00:56:13;100223.06;;;-6.20;73.28
35507;BME280;36461;52.018;21.036;2022-11-20T00:58:43;100222.19;;;-6.20;73.28
35507;BME280;36461;52.018;21.036;2022-11-20T01:01:19;100219.56;;;-6.24;73.31
35507;BME280;36461;52.018;21.036;2022-11-20T01:03:51;100216.07;;;-6.27;73.32
35507;BME280;36461;52.018;21.036;2022-11-20T01:06:22;100218.55;;;-6.29;73.39
35507;BME280;36461;52.018;21.036;2022-11-20T01:08:53;100215.47;;;-6.33;73.33
35507;BME280;36461;52.018;21.036;2022-11-20T01:11:24;100217.91;;;-6.36;73.43
35507;BME280;36461;52.018;21.036;2022-11-20T01:13:56;100209.86;;;-6.37;73.37
35507;BME280;36461;52.018;21.036;2022-11-20T01:16:27;100214.45;;;-6.38;73.48
35507;BME280;36461;52.018;21.036;2022-11-20T01:19:00;100214.87;;;-6.38;73.52
35507;BME280;36461;52.018;21.036;2022-11-20T01:21:38;100201.64;;;-6.44;73.59
35507;BME280;36461;52.018;21.036;2022-11-20T01:24:08;100200.71;;;-6.46;73.63
35507;BME280;36461;52.018;21.036;2022-11-20T01:26:39;100199.31;;;-6.51;73.65
35507;BME280;36461;52.018;21.036;2022-11-20T01:29:08;100201.78;;;-6.52;73.77
35507;BME280;36461;52.018;21.036;2022-11-20T01:31:37;100202.97;;;-6.54;73.88
35507;BME280;36461;52.018;21.036;2022-11-20T01:34:06;100199.14;;;-6.55;73.97
35507;BME280;36461;52.018;21.036;2022-11-20T01:36:36;100196.98;;;-6.58;74.05
35507;BME280;36461;52.018;21.036;2022-11-20T01:39:05;100193.53;;;-6.60;74.18
35507;BME280;36461;52.018;21.036;2022-11-20T01:41:34;100192.39;;;-6.56;74.28
35507;BME280;36461;52.018;21.036;2022-11-20T01:47:12;100195.86;;;-6.53;74.45
35507;BME280;36461;52.018;21.036;2022-11-20T01:49:42;100193.84;;;-6.50;74.56
35507;BME280;36461;52.018;21.036;2022-11-20T01:52:16;100193.59;;;-6.45;74.60
35507;BME280;36461;52.018;21.036;2022-11-20T01:54:49;100194.16;;;-6.41;74.69
35507;BME280;36461;52.018;21.036;2022-11-20T01:57:18;100187.04;;;-6.40;74.74
35507;BME280;36461;52.018;21.036;2022-11-20T01:59:53;100189.75;;;-6.34;74.82
35507;BME280;36461;52.018;21.036;2022-11-20T02:02:21;100193.00;;;-6.25;74.92
35507;BME280;36461;52.018;21.036;2022-11-20T02:04:49;100188.20;;;-6.17;74.97
35507;BME280;36461;52.018;21.036;2022-11-20T02:07:18;100190.66;;;-6.06;75.04
35507;BME280;36461;52.018;21.036;2022-11-20T02:09:45;100181.55;;;-6.01;74.91
35507;BME280;36461;52.018;21.036;2022-11-20T02:12:11;100177.94;;;-5.95;74.91
35507;BME280;36461;52.018;21.036;2022-11-20T02:14:39;100181.86;;;-5.90;74.86
35507;BME280;36461;52.018;21.036;2022-11-20T02:17:06;100179.83;;;-5.87;74.82
35507;BME280;36461;52.018;21.036;2022-11-20T02:19:32;100177.42;;;-5.83;74.72
35507;BME280;36461;52.018;21.036;2022-11-20T02:22:17;100174.98;;;-5.81;74.75
35507;BME280;36461;52.018;21.036;2022-11-20T02:24:44;100170.97;;;-5.75;74.74
35507;BME280;36461;52.018;21.036;2022-11-20T02:27:14;100173.58;;;-5.71;74.73
35507;BME280;36461;52.018;21.036;2022-11-20T02:29:48;100172.44;;;-5.67;74.76
35507;BME280;36461;52.018;21.036;2022-11-20T02:32:27;100176.97;;;-5.57;74.90
35507;BME280;36461;52.018;21.036;2022-11-20T02:34:56;100171.27;;;-5.49;74.80
35507;BME280;36461;52.018;21.036;2022-11-20T02:37:23;100173.37;;;-5.50;74.55
35507;BME280;36461;52.018;21.036;2022-11-20T02:39:53;100176.66;;;-5.53;74.41
35507;BME280;36461;52.018;21.036;2022-11-20T02:42:19;100171.14;;;-5.54;74.31
35507;BME280;36461;52.018;21.036;2022-11-20T02:44:46;100173.21;;;-5.55;74.37
35507;BME280;36461;52.018;21.036;2022-11-20T02:47:12;100183.63;;;-5.59;74.20
35507;BME280;36461;52.018;21.036;2022-11-20T02:49:38;100187.22;;;-5.66;74.02
35507;BME280;36461;52.018;21.036;2022-11-20T02:52:04;100187.02;;;-5.73;74.04
35507;BME280;36461;52.018;21.036;2022-11-20T02:54:31;100191.03;;;-5.79;74.03
35507;BME280;36461;52.018;21.036;2022-11-20T02:56:57;100190.48;;;-5.83;74.04
35507;BME280;36461;52.018;21.036;2022-11-20T02:59:24;100191.12;;;-5.91;73.99
35507;BME280;36461;52.018;21.036;2022-11-20T03:01:50;100199.34;;;-5.96;74.13
35507;BME280;36461;52.018;21.036;2022-11-20T03:04:16;100192.97;;;-5.99;74.20
35507;BME280;36461;52.018;21.036;2022-11-20T03:06:43;100188.59;;;-6.05;74.24
35507;BME280;36461;52.018;21.036;2022-11-20T03:09:09;100169.68;;;-6.16;74.28
35507;BME280;36461;52.018;21.036;2022-11-20T03:11:35;100188.88;;;-6.09;74.21
35507;BME280;36461;52.018;21.036;2022-11-20T03:14:03;100184.95;;;-6.13;74.26
35507;BME280;36461;52.018;21.036;2022-11-20T03:16:31;100188.91;;;-6.21;74.29
35507;BME280;36461;52.018;21.036;2022-11-20T03:18:59;100184.87;;;-6.29;74.34
35507;BME280;36461;52.018;21.036;2022-11-20T03:21:26;100186.04;;;-6.32;74.56
35507;BME280;36461;52.018;21.036;2022-11-20T03:23:53;100186.42;;;-6.33;74.63
35507;BME280;36461;52.018;21.036;2022-11-20T03:26:23;100192.35;;;-6.32;74.69
35507;BME280;36461;52.018;21.036;2022-11-20T03:28:52;100193.54;;;-6.34;74.70
35507;BME280;36461;52.018;21.036;2022-11-20T03:31:26;100188.91;;;-6.34;74.78
35507;BME280;36461;52.018;21.036;2022-11-20T03:33:54;100185.78;;;-6.40;74.67
35507;BME280;36461;52.018;21.036;2022-11-20T03:36:22;100183.50;;;-6.45;74.76
35507;BME280;36461;52.018;21.036;2022-11-20T03:38:48;100179.16;;;-6.49;74.84
35507;BME280;36461;52.018;21.036;2022-11-20T03:41:20;100176.16;;;-6.50;74.87
35507;BME280;36461;52.018;21.036;2022-11-20T03:43:54;100175.66;;;-6.53;74.98
35507;BME280;36461;52.018;21.036;2022-11-20T03:46:23;100176.31;;;-6.59;75.02
35507;BME280;36461;52.018;21.036;2022-11-20T03:48:50;100172.39;;;-6.63;75.17
35507;BME280;36461;52.018;21.036;2022-11-20T03:51:20;100171.47;;;-6.65;75.22
35507;BME280;36461;52.018;21.036;2022-11-20T03:53:54;100171.75;;;-6.69;75.28
35507;BME280;36461;52.018;21.036;2022-11-20T03:56:25;100176.80;;;-6.69;75.39
35507;BME280;36461;52.018;21.036;2022-11-20T03:58:52;100172.17;;;-6.69;75.43
35507;BME280;36461;52.018;21.036;2022-11-20T04:01:22;100180.16;;;-6.70;75.46
35507;BME280;36461;52.018;21.036;2022-11-20T04:03:54;100182.17;;;-6.72;75.52
35507;BME280;36461;52.018;21.036;2022-11-20T04:06:24;100178.26;;;-6.76;75.51
35507;BME280;36461;52.018;21.036;2022-11-20T04:08:54;100179.42;;;-6.79;75.54
35507;BME280;36461;52.018;21.036;2022-11-20T04:11:29;100173.53;;;-6.79;75.65
35507;BME280;36461;52.018;21.036;2022-11-20T04:14:01;100177.70;;;-6.80;75.67
35507;BME280;36461;52.018;21.036;2022-11-20T04:16:31;100171.70;;;-6.83;75.63
35507;BME280;36461;52.018;21.036;2022-11-20T04:19:01;100180.41;;;-6.86;75.62
35507;BME280;36461;52.018;21.036;2022-11-20T04:21:29;100173.16;;;-6.90;75.70
35507;BME280;36461;52.018;21.036;2022-11-20T04:23:56;100170.55;;;-6.92;75.74
35507;BME280;36461;52.018;21.036;2022-11-20T04:26:24;100164.61;;;-6.94;75.77
35507;BME280;36461;52.018;21.036;2022-11-20T04:28:52;100162.04;;;-6.95;75.81
35507;BME280;36461;52.018;21.036;2022-11-20T04:31:30;100157.79;;;-6.96;75.83
35507;BME280;36461;52.018;21.036;2022-11-20T04:33:53;100156.43;;;-6.99;75.81
35507;BME280;36461;52.018;21.036;2022-11-20T04:36:24;100161.02;;;-7.00;75.85
35507;BME280;36461;52.018;21.036;2022-11-20T04:39:00;100156.38;;;-7.01;76.05
35507;BME280;36461;52.018;21.036;2022-11-20T04:41:32;100156.38;;;-7.01;75.96
35507;BME280;36461;52.018;21.036;2022-11-20T04:44:01;100156.25;;;-7.04;75.96
35507;BME280;36461;52.018;21.036;2022-11-20T04:46:37;100156.25;;;-7.04;76.04
35507;BME280;36461;52.018;21.036;2022-11-20T04:49:05;100148.22;;;-7.05;76.04
35507;BME280;36461;52.018;21.036;2022-11-20T04:51:33;100146.53;;;-7.06;76.03
35507;BME280;36461;52.018;21.036;2022-11-20T04:54:00;100143.08;;;-7.08;76.00
35507;BME280;36461;52.018;21.036;2022-11-20T04:56:26;100135.51;;;-7.08;76.14
35507;BME280;36461;52.018;21.036;2022-11-20T04:58:53;100137.56;;;-7.09;76.12
35507;BME280;36461;52.018;21.036;2022-11-20T05:01:22;100130.31;;;-7.13;76.11
35507;BME280;36461;52.018;21.036;2022-11-20T05:03:49;100131.45;;;-7.16;76.08
35507;BME280;36461;52.018;21.036;2022-11-20T05:06:19;100129.67;;;-7.18;76.21
35507;BME280;36461;52.018;21.036;2022-11-20T05:08:47;100120.84;;;-7.18;76.19
35507;BME280;36461;52.018;21.036;2022-11-20T05:11:14;100120.75;;;-7.21;76.24
35507;BME280;36461;52.018;21.036;2022-11-20T05:13:43;100129.98;;;-7.22;76.37
35507;BME280;36461;52.018;21.036;2022-11-20T05:16:15;100132.61;;;-7.19;76.46
35507;BME280;36461;52.018;21.036;2022-11-20T05:18:40;100125.84;;;-7.20;76.37
35507;BME280;36461;52.018;21.036;2022-11-20T05:21:08;100123.69;;;-7.22;76.34
35507;BME280;36461;52.018;21.036;2022-11-20T05:23:36;100124.02;;;-7.24;76.43
35507;BME280;36461;52.018;21.036;2022-11-20T05:26:04;100117.33;;;-7.23;76.45
35507;BME280;36461;52.018;21.036;2022-11-20T05:28:32;100114.34;;;-7.25;76.48
35507;BME280;36461;52.018;21.036;2022-11-20T05:31:07;100118.08;;;-7.26;76.52
35507;BME280;36461;52.018;21.036;2022-11-20T05:33:35;100123.13;;;-7.26;76.60
35507;BME280;36461;52.018;21.036;2022-11-20T05:36:03;100129.76;;;-7.28;76.60
35507;BME280;36461;52.018;21.036;2022-11-20T05:38:30;100127.14;;;-7.31;76.73
35507;BME280;36461;52.018;21.036;2022-11-20T05:41:11;100125.92;;;-7.30;76.77
35507;BME280;36461;52.018;21.036;2022-11-20T05:43:36;100117.95;;;-7.29;76.79
35507;BME280;36461;52.018;21.036;2022-11-20T05:46:04;100122.14;;;-7.30;76.74
35507;BME280;36461;52.018;21.036;2022-11-20T05:48:33;100116.13;;;-7.33;76.69
35507;BME280;36461;52.018;21.036;2022-11-20T05:51:01;100118.27;;;-7.33;76.74
35507;BME280;36461;52.018;21.036;2022-11-20T05:53:29;100109.81;;;-7.33;76.73
35507;BME280;36461;52.018;21.036;2022-11-20T05:55:58;100111.95;;;-7.33;76.73
35507;BME280;36461;52.018;21.036;2022-11-20T05:58:26;100112.70;;;-7.35;76.79
35507;BME280;36461;52.018;21.036;2022-11-20T06:01:07;100107.30;;;-7.33;76.91
35507;BME280;36461;52.018;21.036;2022-11-20T06:03:40;100111.59;;;-7.31;76.90
35507;BME280;36461;52.018;21.036;2022-11-20T06:06:08;100106.68;;;-7.28;77.06
35507;BME280;36461;52.018;21.036;2022-11-20T06:08:35;100102.48;;;-7.27;76.99
35507;BME280;36461;52.018;21.036;2022-11-20T06:11:05;100106.68;;;-7.28;76.92
35507;BME280;36461;52.018;21.036;2022-11-20T06:13:33;100108.78;;;-7.27;76.96
35507;BME280;36461;52.018;21.036;2022-11-20T06:15:59;100108.84;;;-7.26;77.08
35507;BME280;36461;52.018;21.036;2022-11-20T06:18:26;100110.61;;;-7.23;77.15
35507;BME280;36461;52.018;21.036;2022-11-20T06:21:08;100110.66;;;-7.21;77.13
35507;BME280;36461;52.018;21.036;2022-11-20T06:23:36;100107.80;;;-7.19;77.19
35507;BME280;36461;52.018;21.036;2022-11-20T06:26:04;100109.11;;;-7.18;77.21
35507;BME280;36461;52.018;21.036;2022-11-20T06:28:39;100109.95;;;-7.17;77.27
35507;BME280;36461;52.018;21.036;2022-11-20T06:31:06;100109.95;;;-7.17;77.27
35507;BME280;36461;52.018;21.036;2022-11-20T06:33:33;100103.55;;;-7.20;77.18
35507;BME280;36461;52.018;21.036;2022-11-20T06:36:00;100108.19;;;-7.20;77.23
35507;BME280;36461;52.018;21.036;2022-11-20T06:38:27;100097.06;;;-7.14;77.48
35507;BME280;36461;52.018;21.036;2022-11-20T06:40:54;100095.61;;;-7.07;77.49
35507;BME280;36461;52.018;21.036;2022-11-20T06:43:22;100100.28;;;-7.05;77.34
35507;BME280;36461;52.018;21.036;2022-11-20T06:45:57;100103.32;;;-7.02;77.36
35507;BME280;36461;52.018;21.036;2022-11-20T06:48:27;100093.40;;;-6.98;77.41
35507;BME280;36461;52.018;21.036;2022-11-20T06:50:54;100098.64;;;-6.92;77.45
35507;BME280;36461;52.018;21.036;2022-11-20T06:53:22;100097.50;;;-6.88;77.43
35507;BME280;36461;52.018;21.036;2022-11-20T06:55:51;100100.11;;;-6.85;77.39
35507;BME280;36461;52.018;21.036;2022-11-20T06:58:18;100095.87;;;-6.86;77.39
35507;BME280;36461;52.018;21.036;2022-11-20T07:00:44;100098.09;;;-6.83;77.45
35507;BME280;36461;52.018;21.036;2022-11-20T07:03:11;100097.85;;;-6.78;77.58
35507;BME280;36461;52.018;21.036;2022-11-20T07:05:39;100103.45;;;-6.73;77.57
35507;BME280;36461;52.018;21.036;2022-11-20T07:08:06;100101.44;;;-6.71;77.49
35507;BME280;36461;52.018;21.036;2022-11-20T07:10:33;100099.85;;;-6.67;77.53
35507;BME280;36461;52.018;21.036;2022-11-20T07:13:00;100102.59;;;-6.61;77.68
35507;BME280;36461;52.018;21.036;2022-11-20T07:15:26;100099.45;;;-6.54;77.78
35507;BME280;36461;52.018;21.036;2022-11-20T07:17:52;100093.25;;;-6.51;77.70
35507;BME280;36461;52.018;21.036;2022-11-20T07:20:19;100096.79;;;-6.46;77.72
35507;BME280;36461;52.018;21.036;2022-11-20T07:22:45;100088.92;;;-6.41;77.82
35507;BME280;36461;52.018;21.036;2022-11-20T07:25:11;100090.30;;;-6.37;77.77
35507;BME280;36461;52.018;21.036;2022-11-20T07:27:37;100087.16;;;-6.30;77.82
35507;BME280;36461;52.018;21.036;2022-11-20T07:30:05;100080.54;;;-6.27;77.79
35507;BME280;36461;52.018;21.036;2022-11-20T07:32:33;100081.55;;;-6.21;77.91
35507;BME280;36461;52.018;21.036;2022-11-20T07:34:59;100078.72;;;-6.16;77.89
35507;BME280;36461;52.018;21.036;2022-11-20T07:37:25;100080.10;;;-6.13;77.87
35507;BME280;36461;52.018;21.036;2022-11-20T07:39:52;100081.41;;;-6.12;77.84
35507;BME280;36461;52.018;21.036;2022-11-20T07:42:18;100075.21;;;-6.07;77.95
35507;BME280;36461;52.018;21.036;2022-11-20T07:44:44;100069.89;;;-6.02;77.99
35507;BME280;36461;52.018;21.036;2022-11-20T07:47:10;100078.45;;;-5.97;78.02
35507;BME280;36461;52.018;21.036;2022-11-20T07:49:37;100075.61;;;-5.93;78.04
35507;BME280;36461;52.018;21.036;2022-11-20T07:52:03;100074.92;;;-5.87;78.09
35507;BME280;36461;52.018;21.036;2022-11-20T07:54:29;100073.40;;;-5.82;78.11
35507;BME280;36461;52.018;21.036;2022-11-20T07:56:56;100073.94;;;-5.78;78.05
35507;BME280;36461;52.018;21.036;2022-11-20T07:59:22;100071.52;;;-5.74;78.18
35507;BME280;36461;52.018;21.036;2022-11-20T08:01:48;100070.87;;;-5.68;78.33
35507;BME280;36461;52.018;21.036;2022-11-20T08:04:14;100065.50;;;-5.63;78.28
35507;BME280;36461;52.018;21.036;2022-11-20T08:06:42;100069.44;;;-5.58;78.34
35507;BME280;36461;52.018;21.036;2022-11-20T08:09:08;100066.64;;;-5.53;78.36
35507;BME280;36461;52.018;21.036;2022-11-20T08:11:35;100065.95;;;-5.47;78.45
35507;BME280;36461;52.018;21.036;2022-11-20T08:14:20;100067.78;;;-5.42;78.47
35507;BME280;36461;52.018;21.036;2022-11-20T08:16:48;100067.50;;;-5.36;78.48
35507;BME280;36461;52.018;21.036;2022-11-20T08:19:17;100064.27;;;-5.31;78.55
35507;BME280;36461;52.018;21.036;2022-11-20T08:21:44;100070.81;;;-5.23;78.66
35507;BME280;36461;52.018;21.036;2022-11-20T08:24:12;100071.83;;;-5.16;78.71
35507;BME280;36461;52.018;21.036;2022-11-20T08:26:39;100064.80;;;-5.11;78.79
35507;BME280;36461;52.018;21.036;2022-11-20T08:29:06;100062.52;;;-5.01;78.94
35507;BME280;36461;52.018;21.036;2022-11-20T08:31:33;100056.42;;;-4.92;79.03
35507;BME280;36461;52.018;21.036;2022-11-20T08:34:01;100051.91;;;-4.86;78.97
35507;BME280;36461;52.018;21.036;2022-11-20T08:36:28;100055.06;;;-4.79;79.05
35507;BME280;36461;52.018;21.036;2022-11-20T08:38:55;100046.78;;;-4.72;79.09
35507;BME280;36461;52.018;21.036;2022-11-20T08:41:22;100046.52;;;-4.65;79.11
35507;BME280;36461;52.018;21.036;2022-11-20T08:43:55;100040.35;;;-4.59;79.03
35507;BME280;36461;52.018;21.036;2022-11-20T08:46:26;100045.09;;;-4.54;79.06
35507;BME280;36461;52.018;21.036;2022-11-20T08:48:55;100044.01;;;-4.46;79.08
35507;BME280;36461;52.018;21.036;2022-11-20T08:51:21;100037.44;;;-4.38;79.14
35507;BME280;36461;52.018;21.036;2022-11-20T08:53:47;100033.36;;;-4.31;79.15
35507;BME280;36461;52.018;21.036;2022-11-20T08:56:17;100033.54;;;-4.24;79.15
35507;BME280;36461;52.018;21.036;2022-11-20T08:58:44;100032.36;;;-4.19;79.17
35507;BME280;36461;52.018;21.036;2022-11-20T09:01:10;100029.16;;;-4.12;79.16
35507;BME280;36461;52.018;21.036;2022-11-20T09:03:37;100024.20;;;-4.06;79.11
35507;BME280;36461;52.018;21.036;2022-11-20T09:06:06;100030.66;;;-4.01;79.12
35507;BME280;36461;52.018;21.036;2022-11-20T09:08:33;100017.27;;;-3.94;79.10
35507;BME280;36461;52.018;21.036;2022-11-20T09:11:02;100017.86;;;-3.86;79.17
35507;BME280;36461;52.018;21.036;2022-11-20T09:13:29;100021.79;;;-3.79;79.18
35507;BME280;36461;52.018;21.036;2022-11-20T09:15:59;100025.36;;;-3.71;79.12
35507;BME280;36461;52.018;21.036;2022-11-20T09:18:28;100022.08;;;-3.65;79.04
35507;BME280;36461;52.018;21.036;2022-11-20T09:21:02;100020.52;;;-3.58;79.02
35507;BME280;36461;52.018;21.036;2022-11-20T09:23:26;100006.64;;;-3.54;78.96
35507;BME280;36461;52.018;21.036;2022-11-20T09:25:53;100013.95;;;-3.47;78.97
35507;BME280;36461;52.018;21.036;2022-11-20T09:28:21;100013.66;;;-3.40;78.96
35507;BME280;36461;52.018;21.036;2022-11-20T09:30:47;100006.14;;;-3.35;78.95
35507;BME280;36461;52.018;21.036;2022-11-20T09:33:14;100003.23;;;-3.32;78.88
35507;BME280;36461;52.018;21.036;2022-11-20T09:35:40;99996.16;;;-3.26;78.86
35507;BME280;36461;52.018;21.036;2022-11-20T09:38:07;99998.34;;;-3.21;78.92
35507;BME280;36461;52.018;21.036;2022-11-20T09:40:35;99990.80;;;-3.18;78.87
35507;BME280;36461;52.018;21.036;2022-11-20T09:44:07;99987.48;;;-3.14;78.87
35507;BME280;36461;52.018;21.036;2022-11-20T09:46:25;99994.34;;;-3.08;78.84
35507;BME280;36461;52.018;21.036;2022-11-20T09:52:07;99981.84;;;-2.96;78.87
35507;BME280;36461;52.018;21.036;2022-11-20T09:54:40;99987.41;;;-2.92;78.90
35507;BME280;36461;52.018;21.036;2022-11-20T09:57:13;99985.42;;;-2.84;78.96
35507;BME280;36461;52.018;21.036;2022-11-20T09:59:43;99984.64;;;-2.80;78.94
35507;BME280;36461;52.018;21.036;2022-11-20T10:05:18;99981.81;;;-2.71;78.87
35507;BME280;36461;52.018;21.036;2022-11-20T10:08:17;99982.77;;;-2.64;78.80
35507;BME280;36461;52.018;21.036;2022-11-20T10:10:50;99987.52;;;-2.57;78.81
35507;BME280;36461;52.018;21.036;2022-11-20T10:22:42;99974.31;;;-2.31;78.67
35507;BME280;36461;52.018;21.036;2022-11-20T10:28:16;99966.45;;;-2.18;78.58
35507;BME280;36461;52.018;21.036;2022-11-20T10:31:10;99959.69;;;-2.15;78.53
35507;BME280;36461;52.018;21.036;2022-11-20T10:33:43;99952.98;;;-2.10;78.49
35507;BME280;36461;52.018;21.036;2022-11-20T10:36:23;99947.52;;;-2.06;78.43
35507;BME280;36461;52.018;21.036;2022-11-20T10:38:58;99946.70;;;-2.04;78.47
35507;BME280;36461;52.018;21.036;2022-11-20T10:41:36;99937.84;;;-1.99;78.59
35507;BME280;36461;52.018;21.036;2022-11-20T10:44:19;99943.02;;;-1.93;78.48
35507;BME280;36461;52.018;21.036;2022-11-20T10:47:11;99945.59;;;-1.88;78.37
35507;BME280;36461;52.018;21.036;2022-11-20T10:49:42;99944.42;;;-1.80;78.41
35507;BME280;36461;52.018;21.036;2022-11-20T10:52:27;99938.52;;;-1.76;78.24
35507;BME280;36461;52.018;21.036;2022-11-20T11:00:35;99936.55;;;-1.61;78.14
35507;BME280;36461;52.018;21.036;2022-11-20T11:03:03;99934.07;;;-1.57;78.11
35507;BME280;36461;52.018;21.036;2022-11-20T11:05:54;99931.98;;;-1.53;78.10
35507;BME280;36461;52.018;21.036;2022-11-20T11:08:18;99932.06;;;-1.46;78.08
35507;BME280;36461;52.018;21.036;2022-11-20T11:13:27;99925.74;;;-1.39;77.86
35507;BME280;36461;52.018;21.036;2022-11-20T11:15:56;99927.91;;;-1.35;77.81
35507;BME280;36461;52.018;21.036;2022-11-20T11:18:28;99931.75;;;-1.30;77.65
35507;BME280;36461;52.018;21.036;2022-11-20T11:20:57;99936.45;;;-1.28;77.65
35507;BME280;36461;52.018;21.036;2022-11-20T11:23:32;99940.30;;;-1.24;77.58
35507;BME280;36461;52.018;21.036;2022-11-20T11:26:06;99942.03;;;-1.20;77.49
35507;BME280;36461;52.018;21.036;2022-11-20T11:28:35;99931.02;;;-1.17;77.54
35507;BME280;36461;52.018;21.036;2022-11-20T11:31:01;99922.55;;;-1.14;77.42
35507;BME280;36461;52.018;21.036;2022-11-20T11:33:30;99931.08;;;-1.09;77.37
35507;BME280;36461;52.018;21.036;2022-11-20T11:36:03;99925.16;;;-1.07;77.14
35507;BME280;36461;52.018;21.036;2022-11-20T11:38:38;99928.59;;;-1.05;77.12
35507;BME280;36461;52.018;21.036;2022-11-20T11:41:09;99917.98;;;-1.01;77.08
35507;BME280;36461;52.018;21.036;2022-11-20T11:43:37;99913.34;;;-0.97;76.96
35507;BME280;36461;52.018;21.036;2022-11-20T11:46:33;99919.72;;;-0.95;76.94
35507;BME280;36461;52.018;21.036;2022-11-20T11:49:13;99917.17;;;-0.95;76.78
35507;BME280;36461;52.018;21.036;2022-11-20T11:54:38;99909.14;;;-0.89;76.73
35507;BME280;36461;52.018;21.036;2022-11-20T12:00:21;99907.48;;;-0.82;76.52
35507;BME280;36461;52.018;21.036;2022-11-20T12:03:13;99904.98;;;-0.80;76.54
35507;BME280;36461;52.018;21.036;2022-11-20T12:05:51;99904.55;;;-0.77;76.38
35507;BME280;36461;52.018;21.036;2022-11-20T12:08:36;99905.00;;;-0.74;76.36
35507;BME280;36461;52.018;21.036;2022-11-20T12:11:16;99897.79;;;-0.73;76.09
35507;BME280;36461;52.018;21.036;2022-11-20T12:16:47;99903.77;;;-0.71;75.95
35507;BME280;36461;52.018;21.036;2022-11-20T12:19:14;99896.52;;;-0.69;75.92
35507;BME280;36461;52.018;21.036;2022-11-20T12:30:52;99875.73;;;-0.65;75.90
35507;BME280;36461;52.018;21.036;2022-11-20T12:33:39;99863.42;;;-0.67;75.72
35507;BME280;36461;52.018;21.036;2022-11-20T12:36:27;99866.38;;;-0.66;75.75
35507;BME280;36461;52.018;21.036;2022-11-20T12:45:20;99870.23;;;-0.64;75.43
35507;BME280;36461;52.018;21.036;2022-11-20T13:05:12;99851.09;;;-0.66;75.14
35507;BME280;36461;52.018;21.036;2022-11-20T13:07:44;99850.69;;;-0.67;75.07
35507;BME280;36461;52.018;21.036;2022-11-20T13:10:33;99845.98;;;-0.68;74.98
35507;BME280;36461;52.018;21.036;2022-11-20T13:13:11;99840.89;;;-0.68;74.96
35507;BME280;36461;52.018;21.036;2022-11-20T13:18:14;99845.58;;;-0.67;75.41
35507;BME280;36461;52.018;21.036;2022-11-20T13:20:43;99842.59;;;-0.66;75.11
35507;BME280;36461;52.018;21.036;2022-11-20T13:23:28;99839.66;;;-0.64;75.10
35507;BME280;36461;52.018;21.036;2022-11-20T13:26:04;99835.39;;;-0.64;74.93
35507;BME280;36461;52.018;21.036;2022-11-20T13:28:32;99831.97;;;-0.66;74.87
35507;BME280;36461;52.018;21.036;2022-11-20T13:30:59;99828.58;;;-0.68;74.76
35507;BME280;36461;52.018;21.036;2022-11-20T13:36:19;99823.00;;;-0.75;74.94
35507;BME280;36461;52.018;21.036;2022-11-20T13:38:51;99824.71;;;-0.76;74.88
35507;BME280;36461;52.018;21.036;2022-11-20T13:41:30;99827.69;;;-0.78;74.81
35507;BME280;36461;52.018;21.036;2022-11-20T13:46:45;99825.94;;;-0.83;74.80
35507;BME280;36461;52.018;21.036;2022-11-20T13:49:31;99822.95;;;-0.86;74.78
35507;BME280;36461;52.018;21.036;2022-11-20T14:00:43;99807.16;;;-1.01;74.81
35507;BME280;36461;52.018;21.036;2022-11-20T14:03:21;99813.52;;;-1.04;74.88
35507;BME280;36461;52.018;21.036;2022-11-20T14:05:50;99815.63;;;-1.08;74.92
35507;BME280;36461;52.018;21.036;2022-11-20T14:08:41;99814.74;;;-1.12;74.98
35507;BME280;36461;52.018;21.036;2022-11-20T14:11:05;99812.19;;;-1.13;75.11
35507;BME280;36461;52.018;21.036;2022-11-20T14:14:01;99805.38;;;-1.17;75.19
35507;BME280;36461;52.018;21.036;2022-11-20T14:16:32;99810.02;;;-1.25;75.28
35507;BME280;36461;52.018;21.036;2022-11-20T14:21:55;99799.75;;;-1.36;75.51
35507;BME280;36461;52.018;21.036;2022-11-20T14:24:37;99797.16;;;-1.40;75.90
35507;BME280;36461;52.018;21.036;2022-11-20T14:27:03;99796.70;;;-1.44;76.02
35507;BME280;36461;52.018;21.036;2022-11-20T14:29:35;99797.09;;;-1.49;76.11
35507;BME280;36461;52.018;21.036;2022-11-20T14:32:03;99795.37;;;-1.54;76.23